Terminal Aerodrome Forecast
Issued by NWS

Home | Current Version | Previous Version | Text Only | Print | Product List | Glossary On
Versions: 1 2 3 4 5 6 7 8 9 10 11 12 13 14 15 16 17 18 19 20 21 22 23 24
000
FTUS43 KICT 262320
TAFCNU
TAF
KCNU 262320Z 2700/2724 19008KT P6SM VCTS SCT060CB BKN100
      TEMPO 2700/2703 VRB20G35KT 3SM +TSRA OVC035CB
     FM270300 16005KT P6SM BKN120
     FM270800 18004KT 4SM BR SCT015
     FM271400 12005KT P6SM SCT030=

USA.gov is the U.S. government's official web portal to all federal, state and local government web resources and services.